createdAt,value
2016-11-17T10:13:00.375Z,140
2016-11-17T10:13:25.964Z,95
2016-11-17T10:13:51.608Z,80
2016-11-17T10:14:17.162Z,90
2016-11-17T10:14:43.123Z,90
2016-11-17T10:15:08.632Z,95
2016-11-17T10:15:34.269Z,95
2016-11-17T10:15:59.862Z,85
2016-11-17T10:16:25.394Z,85
2016-11-17T10:16:51.020Z,80
2016-11-17T10:17:16.643Z,85
2016-11-17T10:18:31.892Z,95
2016-11-17T10:20:32.767Z,105
2016-11-17T10:20:58.306Z,110
2016-11-17T10:21:23.960Z,115
2016-11-17T10:21:49.686Z,115
2016-11-17T10:22:15.220Z,115
2016-11-17T10:22:40.789Z,115
2016-11-17T10:23:06.361Z,115
2016-11-17T10:23:31.982Z,115
2016-11-17T10:23:57.534Z,120
2016-11-17T10:24:23.098Z,130
2016-11-17T10:24:48.817Z,170
2016-11-17T10:25:14.356Z,175
2016-11-17T10:25:39.916Z,175
2016-11-17T10:26:05.479Z,110
2016-11-17T10:26:31.127Z,145
2016-11-17T10:26:56.693Z,110
2016-11-17T10:27:22.244Z,115
2016-11-17T10:27:47.908Z,125
2016-11-17T10:28:13.466Z,130
2016-11-17T10:28:39.124Z,130
2016-11-17T10:29:04.805Z,135
2016-11-17T10:29:30.349Z,135
2016-11-17T10:29:55.900Z,135
2016-11-17T10:30:21.687Z,135
2016-11-17T10:30:47.379Z,135
2016-11-17T10:31:13.028Z,130
2016-11-17T10:31:38.677Z,130
2016-11-17T10:32:04.176Z,130
2016-11-17T10:32:29.759Z,130
2016-11-17T10:32:55.296Z,120
2016-11-17T10:33:20.994Z,120
2016-11-17T10:33:46.608Z,115
2016-11-17T10:34:12.142Z,110
2016-11-17T10:34:37.711Z,110
2016-11-17T10:35:03.422Z,110
2016-11-17T10:35:28.999Z,110
2016-11-17T10:35:54.564Z,105
2016-11-17T10:36:20.283Z,110
2016-11-17T10:36:45.826Z,115
2016-11-17T10:37:11.396Z,125
2016-11-17T10:37:36.975Z,125
2016-11-17T10:38:02.669Z,125
2016-11-17T10:38:28.250Z,120
2016-11-17T10:38:53.814Z,115
2016-11-17T10:39:19.436Z,110
2016-11-17T10:39:45.006Z,105
2016-11-17T10:40:10.826Z,100
2016-11-17T10:40:36.382Z,95
2016-11-17T10:41:02.002Z,95
2016-11-17T10:41:27.548Z,95
2016-11-17T10:41:53.173Z,90
2016-11-17T10:42:18.739Z,85
2016-11-17T10:42:44.310Z,80
2016-11-17T10:43:09.853Z,75
2016-11-17T10:43:35.457Z,70
2016-11-17T10:44:01.035Z,65
2016-11-17T10:44:26.598Z,60
2016-11-17T10:44:52.255Z,60
2016-11-17T10:45:17.904Z,55
2016-11-17T10:46:26.402Z,55
2016-11-17T10:46:52.016Z,55
2016-11-17T10:47:17.576Z,50
2016-11-17T10:47:43.187Z,50
2016-11-17T10:48:08.739Z,50
2016-11-17T10:48:34.337Z,45
2016-11-17T10:48:59.952Z,45
2016-11-17T10:49:25.502Z,45
2016-11-17T10:49:51.083Z,45
2016-11-17T10:50:16.643Z,45
2016-11-17T10:50:42.323Z,45
2016-11-17T10:51:08.020Z,45
2016-11-17T10:51:33.587Z,45
2016-11-17T10:51:59.159Z,45
2016-11-17T10:52:24.703Z,45
2016-11-17T10:52:50.280Z,45
2016-11-17T10:53:15.842Z,45
2016-11-17T10:53:41.581Z,45
2016-11-17T10:54:07.254Z,45
2016-11-17T10:54:32.823Z,45
2016-11-17T10:54:58.387Z,45
2016-11-17T10:55:23.946Z,45
2016-11-17T10:55:49.514Z,45
2016-11-17T10:56:15.165Z,45
2016-11-17T10:56:40.795Z,50
2016-11-17T10:57:06.369Z,55
2016-11-17T10:57:32.016Z,60
2016-11-17T10:57:57.637Z,65
2016-11-17T10:58:23.218Z,60
2016-11-17T10:58:48.780Z,60
2016-11-17T10:59:14.338Z,55
2016-11-17T10:59:39.901Z,50
2016-11-17T11:00:05.469Z,45
2016-11-17T11:00:31.061Z,40
2016-11-17T11:00:56.645Z,40
2016-11-17T11:01:22.206Z,35
2016-11-17T11:01:47.757Z,35
2016-11-17T11:02:13.330Z,35
2016-11-17T11:02:38.904Z,35
2016-11-17T11:03:04.668Z,35
2016-11-17T11:03:30.340Z,40
2016-11-17T11:03:55.919Z,45
2016-11-17T11:04:21.517Z,50
2016-11-17T11:04:47.075Z,50
2016-11-17T11:05:13.525Z,55
2016-11-17T11:05:39.148Z,55
2016-11-17T11:06:04.657Z,55
2016-11-17T11:06:30.206Z,50
2016-11-17T11:06:55.794Z,50
2016-11-17T11:07:21.345Z,50
2016-11-17T11:07:46.902Z,50
2016-11-17T11:08:12.463Z,50
2016-11-17T11:08:38.066Z,50
2016-11-17T11:09:03.770Z,45
2016-11-17T11:09:29.348Z,45
2016-11-17T11:09:54.895Z,45
2016-11-17T11:10:20.568Z,40
2016-11-17T11:10:46.138Z,40
2016-11-17T11:11:11.724Z,40
2016-11-17T11:11:37.434Z,40
2016-11-17T11:12:02.994Z,45
2016-11-17T11:12:28.621Z,45
2016-11-17T11:12:54.186Z,45
2016-11-17T11:13:19.748Z,50
2016-11-17T11:13:45.309Z,50
2016-11-17T11:14:11.094Z,45
2016-11-17T11:14:36.658Z,45
2016-11-17T11:15:02.174Z,45
2016-11-17T11:15:27.776Z,45
2016-11-17T11:15:53.406Z,45
2016-11-17T11:16:18.988Z,45
2016-11-17T11:16:44.632Z,45
2016-11-17T11:17:10.190Z,50
2016-11-17T11:17:35.783Z,50
2016-11-17T11:18:01.356Z,55
2016-11-17T11:18:26.929Z,55
2016-11-17T11:18:52.577Z,60
2016-11-17T11:19:18.159Z,60
2016-11-17T11:19:43.747Z,60
2016-11-17T11:20:09.277Z,60
2016-11-17T11:20:34.942Z,60
2016-11-17T11:21:00.572Z,60
2016-11-17T11:21:26.197Z,60
2016-11-17T11:21:51.836Z,60
2016-11-17T11:22:17.438Z,60
2016-11-17T11:22:42.948Z,60
2016-11-17T11:23:08.637Z,60
2016-11-17T11:23:34.206Z,60
2016-11-17T11:23:59.867Z,60
2016-11-17T11:24:25.419Z,60
2016-11-17T11:24:51.022Z,65
2016-11-17T11:25:16.587Z,70
2016-11-17T11:25:42.225Z,80
2016-11-17T11:26:07.896Z,90
2016-11-17T11:26:33.463Z,95
2016-11-17T11:26:59.046Z,100
2016-11-17T11:27:24.714Z,105
2016-11-17T11:27:50.276Z,105
2016-11-17T11:28:15.859Z,110
2016-11-17T11:28:41.416Z,115
2016-11-17T11:29:07.026Z,115
2016-11-17T11:29:32.584Z,110
2016-11-17T11:29:58.134Z,105
2016-11-17T11:30:23.812Z,95
2016-11-17T11:30:49.362Z,85
2016-11-17T11:31:14.921Z,80
2016-11-17T11:31:40.581Z,75
2016-11-17T11:32:06.157Z,70
2016-11-17T11:32:31.771Z,70
2016-11-17T11:32:57.472Z,70
2016-11-17T11:33:23.076Z,65
2016-11-17T11:33:48.668Z,65
2016-11-17T11:34:14.240Z,60
2016-11-17T11:34:39.844Z,60
2016-11-17T11:35:05.367Z,60
2016-11-17T11:35:30.940Z,65
2016-11-17T11:35:56.706Z,70
2016-11-17T11:36:22.249Z,70
2016-11-17T11:36:47.825Z,70
2016-11-17T11:37:13.477Z,70
2016-11-17T11:37:39.257Z,70
2016-11-17T11:38:04.864Z,65
2016-11-17T11:38:30.428Z,65
2016-11-17T11:38:56.014Z,70
2016-11-17T11:39:21.596Z,75
2016-11-17T11:39:47.179Z,80
2016-11-17T11:40:12.739Z,85
2016-11-17T11:40:38.318Z,80
2016-11-17T11:41:03.987Z,80
2016-11-17T11:41:29.556Z,80
2016-11-17T11:41:55.268Z,80
2016-11-17T11:42:20.945Z,80
2016-11-17T11:42:46.509Z,80
2016-11-17T11:43:12.145Z,80
2016-11-17T11:43:37.699Z,80
2016-11-17T11:44:03.305Z,75
2016-11-17T11:44:28.932Z,70
2016-11-17T11:44:54.491Z,70
2016-11-17T11:45:20.062Z,65
2016-11-17T11:45:45.590Z,60
2016-11-17T11:46:11.335Z,60
2016-11-17T11:46:36.913Z,55
2016-11-17T11:47:02.456Z,55
2016-11-17T11:47:28.141Z,50
2016-11-17T11:47:53.731Z,50
2016-11-17T11:48:19.320Z,50
2016-11-17T11:48:44.906Z,50
2016-11-17T11:49:10.543Z,50
2016-11-17T11:49:36.120Z,55
2016-11-17T11:50:01.669Z,55
2016-11-17T11:50:27.257Z,55
2016-11-17T11:50:52.957Z,60
2016-11-17T11:51:18.509Z,65
2016-11-17T11:51:44.173Z,70
2016-11-17T11:52:09.751Z,80
2016-11-17T11:52:35.368Z,85
2016-11-17T11:53:00.940Z,90
2016-11-17T11:53:26.543Z,100
2016-11-17T11:53:52.152Z,120
2016-11-17T11:54:17.710Z,135
2016-11-17T11:54:43.274Z,150
2016-11-17T11:55:08.836Z,165
2016-11-17T11:55:34.412Z,180
2016-11-17T11:56:00.134Z,185
2016-11-17T11:56:25.713Z,175
2016-11-17T11:56:51.486Z,155
2016-11-17T11:57:17.044Z,145
2016-11-17T11:57:42.578Z,135
2016-11-17T11:58:08.276Z,125
2016-11-17T11:58:33.821Z,115
2016-11-17T11:58:59.400Z,100
2016-11-17T11:59:24.975Z,90
2016-11-17T11:59:50.534Z,80
2016-11-17T12:00:16.164Z,75
2016-11-17T12:00:41.807Z,80
2016-11-17T12:01:07.402Z,90
2016-11-17T12:01:32.977Z,100
2016-11-17T12:01:58.561Z,110
2016-11-17T12:02:24.122Z,130
2016-11-17T12:02:49.695Z,140
2016-11-17T12:03:15.357Z,145
2016-11-17T12:03:41.014Z,135
2016-11-17T12:04:06.607Z,125
2016-11-17T12:04:32.224Z,125
2016-11-17T12:04:57.832Z,125
2016-11-17T12:05:23.465Z,135
2016-11-17T12:05:49.015Z,140
2016-11-17T12:06:14.653Z,150
2016-11-17T12:06:40.239Z,160
2016-11-17T12:07:05.817Z,140
2016-11-17T12:07:31.450Z,145
2016-11-17T12:07:57.005Z,170
2016-11-17T12:08:22.569Z,165
2016-11-17T12:09:46.424Z,150
2016-11-17T12:10:12.003Z,140
2016-11-17T12:10:37.667Z,140
2016-11-17T12:11:03.222Z,140
2016-11-17T12:11:28.790Z,140
2016-11-17T12:11:54.476Z,145
2016-11-17T12:12:20.086Z,145
2016-11-17T12:12:45.675Z,140
2016-11-17T12:13:11.212Z,140
2016-11-17T12:14:20.848Z,140
2016-11-17T12:16:26.844Z,140
2016-11-17T12:16:52.454Z,140
2016-11-17T12:17:18.012Z,140
2016-11-17T12:18:46.944Z,140
2016-11-17T12:19:12.568Z,135
2016-11-17T12:19:38.239Z,135
2016-11-17T12:20:03.919Z,140
2016-11-17T12:20:29.580Z,135
2016-11-17T12:20:55.306Z,135
2016-11-17T12:21:20.917Z,135
2016-11-17T12:21:46.521Z,135
2016-11-17T12:22:12.077Z,130
2016-11-17T12:22:37.615Z,130
2016-11-17T12:23:03.185Z,130
2016-11-17T12:23:28.759Z,130
2016-11-17T12:23:54.320Z,120
2016-11-17T12:24:19.881Z,105
2016-11-17T12:24:45.442Z,100
2016-11-17T12:25:11.020Z,95
2016-11-17T12:26:34.765Z,95
2016-11-17T12:27:00.320Z,95
2016-11-17T12:27:25.895Z,90
2016-11-17T12:27:51.459Z,85
2016-11-17T12:28:17.121Z,80
2016-11-17T12:28:42.732Z,80
2016-11-17T12:29:08.289Z,75
2016-11-17T12:29:33.892Z,75
2016-11-17T12:29:59.467Z,75
2016-11-17T12:30:25.031Z,75
2016-11-17T12:30:50.680Z,70
2016-11-17T12:31:16.209Z,70
2016-11-17T12:31:41.916Z,65
2016-11-17T12:32:07.537Z,65
2016-11-17T12:32:33.132Z,60
2016-11-17T12:32:59.548Z,60
2016-11-17T12:33:25.219Z,55
2016-11-17T12:33:50.783Z,55
2016-11-17T12:34:16.332Z,50
2016-11-17T12:34:41.949Z,50
2016-11-17T12:35:07.500Z,50
2016-11-17T12:35:33.150Z,55
2016-11-17T12:35:58.764Z,55
2016-11-17T12:36:24.300Z,55
2016-11-17T12:36:49.869Z,55
2016-11-17T12:37:15.430Z,50
2016-11-17T12:37:41.099Z,50
2016-11-17T12:38:06.661Z,50
2016-11-17T12:38:32.250Z,45
2016-11-17T12:38:57.891Z,45
2016-11-17T12:39:23.459Z,45
2016-11-17T12:39:49.112Z,50
2016-11-17T12:40:14.692Z,50
2016-11-17T12:40:40.289Z,50
2016-11-17T12:41:05.909Z,50
2016-11-17T12:41:31.474Z,50
2016-11-17T12:41:57.108Z,55
2016-11-17T12:42:22.737Z,55
2016-11-17T12:42:48.325Z,55
2016-11-17T12:43:13.944Z,60
2016-11-17T12:43:39.497Z,60
2016-11-17T12:44:05.091Z,65
2016-11-17T12:44:30.654Z,65
2016-11-17T12:44:56.338Z,65
2016-11-17T12:45:21.947Z,70
2016-11-17T12:45:47.511Z,75
2016-11-17T12:46:13.111Z,80
2016-11-17T12:46:38.705Z,85
2016-11-17T12:47:04.273Z,95
2016-11-17T12:47:29.909Z,105
2016-11-17T12:47:55.524Z,120
2016-11-17T12:48:21.098Z,130
2016-11-17T12:48:46.648Z,140
2016-11-17T12:49:12.341Z,155
2016-11-17T12:49:37.893Z,170
2016-11-17T12:50:03.477Z,205
2016-11-17T12:50:29.104Z,200
2016-11-17T12:50:54.778Z,200
2016-11-17T12:51:20.535Z,195
2016-11-17T12:51:46.116Z,185
2016-11-17T12:52:11.688Z,180
2016-11-17T12:52:37.257Z,175
2016-11-17T12:53:02.952Z,170
2016-11-17T12:53:28.558Z,165
2016-11-17T12:53:54.144Z,160
2016-11-17T12:54:19.712Z,160
2016-11-17T12:54:45.309Z,155
2016-11-17T12:55:10.876Z,155
2016-11-17T12:55:36.460Z,155
2016-11-17T12:56:01.996Z,155
2016-11-17T12:56:27.621Z,145
2016-11-17T12:56:53.178Z,140
2016-11-17T12:57:18.741Z,120
2016-11-17T12:57:44.373Z,105
2016-11-17T12:58:09.936Z,100
2016-11-17T12:58:35.598Z,95
2016-11-17T12:59:01.194Z,95
2016-11-17T12:59:26.759Z,90
2016-11-17T12:59:52.329Z,90
2016-11-17T13:00:17.899Z,90
2016-11-17T13:00:43.542Z,90
2016-11-17T13:01:09.150Z,90
2016-11-17T13:01:34.790Z,85
2016-11-17T13:02:00.356Z,85
2016-11-17T13:02:25.977Z,85
2016-11-17T13:02:51.542Z,80
2016-11-17T13:03:17.177Z,80
2016-11-17T13:03:42.771Z,80
2016-11-17T13:04:08.379Z,80
2016-11-17T13:04:33.970Z,80
2016-11-17T13:05:42.451Z,85
2016-11-17T13:06:08.017Z,85
2016-11-17T13:06:33.663Z,85
2016-11-17T13:06:59.213Z,90
2016-11-17T13:07:24.783Z,90
2016-11-17T13:07:50.369Z,90
2016-11-17T13:08:16.063Z,90
2016-11-17T13:08:41.647Z,90
2016-11-17T13:09:07.214Z,90
2016-11-17T13:09:32.751Z,90
2016-11-17T13:09:58.355Z,90
2016-11-17T13:10:24.004Z,95
2016-11-17T13:10:49.675Z,95
2016-11-17T13:11:15.219Z,95
2016-11-17T13:11:40.790Z,95
2016-11-17T13:12:06.374Z,100
2016-11-17T13:12:31.970Z,105
2016-11-17T13:12:57.521Z,110
2016-11-17T13:13:23.089Z,115
2016-11-17T13:13:48.672Z,120
2016-11-17T13:14:14.241Z,115
2016-11-17T13:14:39.852Z,110
2016-11-17T13:15:05.404Z,110
2016-11-17T13:15:30.963Z,110
2016-11-17T13:15:56.703Z,110
2016-11-17T13:16:22.257Z,105
2016-11-17T13:16:47.828Z,100
2016-11-17T13:17:13.574Z,100
2016-11-17T13:17:39.143Z,95
2016-11-17T13:18:04.836Z,95
2016-11-17T13:18:30.376Z,90
2016-11-17T13:18:55.929Z,90
2016-11-17T13:19:21.523Z,85
2016-11-17T13:19:47.094Z,85
2016-11-17T13:20:12.711Z,90
2016-11-17T13:20:38.272Z,95
2016-11-17T13:21:03.925Z,100
2016-11-17T13:21:29.523Z,105
2016-11-17T13:21:55.078Z,110
2016-11-17T13:22:20.657Z,115
2016-11-17T13:22:46.211Z,120
2016-11-17T13:23:11.886Z,125
2016-11-17T13:24:41.729Z,135
2016-11-17T13:26:48.015Z,105
2016-11-17T13:27:13.599Z,100
2016-11-17T13:27:39.176Z,100
2016-11-17T13:28:04.718Z,100
2016-11-17T13:28:30.267Z,100
2016-11-17T13:28:55.954Z,105
2016-11-17T13:29:21.631Z,110
2016-11-17T13:29:47.172Z,115
2016-11-17T13:30:12.851Z,120
2016-11-17T13:30:38.424Z,120
2016-11-17T13:31:03.980Z,120
2016-11-17T13:31:29.554Z,120
2016-11-17T13:31:55.128Z,120
2016-11-17T13:32:20.791Z,125
2016-11-17T13:32:46.323Z,125
2016-11-17T13:33:11.884Z,125
2016-11-17T13:33:37.461Z,135
2016-11-17T13:34:03.064Z,120
2016-11-17T13:34:28.651Z,120
2016-11-17T13:34:54.200Z,125
2016-11-17T13:35:19.760Z,120
2016-11-17T13:35:45.357Z,120
2016-11-17T13:36:10.957Z,110
2016-11-17T13:36:36.522Z,105
2016-11-17T13:37:02.105Z,100
2016-11-17T13:37:27.805Z,95
2016-11-17T13:37:53.363Z,95
2016-11-17T13:38:19.011Z,90
2016-11-17T13:38:44.562Z,90
2016-11-17T13:39:10.166Z,90
2016-11-17T13:39:35.727Z,95
2016-11-17T13:40:01.273Z,105
2016-11-17T13:40:26.955Z,115
2016-11-17T13:40:52.509Z,120
2016-11-17T13:41:18.042Z,115
2016-11-17T13:41:43.635Z,105
2016-11-17T13:42:09.210Z,105
2016-11-17T13:42:34.783Z,105
2016-11-17T13:43:00.394Z,100
2016-11-17T13:43:26.595Z,100
2016-11-17T13:43:52.236Z,95
2016-11-17T13:44:17.912Z,85
2016-11-17T13:44:43.483Z,70
2016-11-17T13:45:09.103Z,80
2016-11-17T13:45:34.666Z,70
2016-11-17T13:46:00.282Z,70
2016-11-17T13:46:25.854Z,70
2016-11-17T13:46:51.420Z,70
2016-11-17T13:47:17.009Z,70
2016-11-17T13:47:42.553Z,70
2016-11-17T13:48:08.119Z,70
2016-11-17T13:48:33.724Z,70
2016-11-17T13:48:59.341Z,70
2016-11-17T13:49:24.969Z,70
2016-11-17T13:49:50.538Z,65
2016-11-17T13:50:16.130Z,60
2016-11-17T13:51:34.780Z,60
2016-11-17T13:52:00.306Z,60
2016-11-17T13:52:25.884Z,60
2016-11-17T13:52:51.467Z,55
2016-11-17T13:53:17.055Z,55
2016-11-17T13:53:42.705Z,60
2016-11-17T13:54:08.269Z,60
2016-11-17T13:54:33.828Z,60
2016-11-17T13:54:59.458Z,65
2016-11-17T13:55:25.042Z,65
2016-11-17T13:55:50.583Z,65
2016-11-17T13:56:16.185Z,65
2016-11-17T13:56:41.726Z,65
2016-11-17T13:57:07.282Z,65
2016-11-17T13:57:32.914Z,70
2016-11-17T13:57:58.480Z,70
2016-11-17T13:58:24.064Z,70
2016-11-17T13:58:49.738Z,75
2016-11-17T13:59:15.657Z,75
2016-11-17T13:59:40.915Z,85
2016-11-17T14:00:06.641Z,85
2016-11-17T14:00:32.253Z,85
2016-11-17T14:00:57.803Z,85
2016-11-17T14:01:23.371Z,95
2016-11-17T14:01:49.172Z,95
2016-11-17T14:02:14.813Z,95
2016-11-17T14:02:40.412Z,95
2016-11-17T14:03:05.946Z,90
2016-11-17T14:03:31.527Z,90
2016-11-17T14:03:57.098Z,90
2016-11-17T14:04:22.693Z,90
2016-11-17T14:04:48.379Z,95
2016-11-17T14:05:13.935Z,95
2016-11-17T14:05:39.519Z,105
2016-11-17T14:06:05.080Z,110
2016-11-17T14:06:30.671Z,115
2016-11-17T14:06:56.293Z,105
2016-11-17T14:07:21.872Z,110
2016-11-17T14:07:47.419Z,110
2016-11-17T14:08:12.968Z,115
2016-11-17T14:08:38.546Z,110
2016-11-17T14:09:04.126Z,105
2016-11-17T14:09:29.698Z,100
2016-11-17T14:09:55.268Z,100
2016-11-17T14:10:20.804Z,100
2016-11-17T14:10:46.466Z,105
2016-11-17T14:11:12.058Z,100
2016-11-17T14:11:37.632Z,100
2016-11-17T14:12:03.225Z,95
2016-11-17T14:12:28.742Z,90
2016-11-17T14:12:54.409Z,90
2016-11-17T14:13:19.967Z,85
2016-11-17T14:13:45.538Z,90
2016-11-17T14:14:11.193Z,90
2016-11-17T14:14:36.751Z,90
2016-11-17T14:15:02.347Z,85
2016-11-17T14:15:27.894Z,80
2016-11-17T14:15:53.575Z,80
2016-11-17T14:16:19.201Z,80
2016-11-17T14:16:44.821Z,85
2016-11-17T14:17:10.627Z,85
2016-11-17T14:17:36.206Z,85
2016-11-17T14:18:01.889Z,85
2016-11-17T14:18:27.453Z,75
2016-11-17T14:18:53.036Z,80
2016-11-17T14:19:18.658Z,85
2016-11-17T14:19:44.223Z,85
2016-11-17T14:20:09.863Z,90
2016-11-17T14:20:35.462Z,85
2016-11-17T14:21:01.100Z,80
2016-11-17T14:21:26.684Z,80
2016-11-17T14:21:52.229Z,75
2016-11-17T14:22:17.832Z,75
2016-11-17T14:22:43.505Z,70
2016-11-17T14:23:09.062Z,65
2016-11-17T14:23:34.712Z,60
2016-11-17T14:24:00.277Z,55
2016-11-17T14:24:25.868Z,45
2016-11-17T14:24:51.410Z,40
2016-11-17T14:25:17.011Z,40
2016-11-17T14:25:42.687Z,40
2016-11-17T14:26:08.251Z,35
2016-11-17T14:26:33.873Z,35
2016-11-17T14:26:59.480Z,35
2016-11-17T14:27:25.096Z,35
2016-11-17T14:27:50.661Z,35
2016-11-17T14:28:16.239Z,35
2016-11-17T14:28:41.887Z,35
2016-11-17T14:29:07.442Z,35
2016-11-17T14:29:33.042Z,40
2016-11-17T14:29:58.668Z,40
2016-11-17T14:30:24.288Z,45
2016-11-17T14:30:49.900Z,45
2016-11-17T14:31:15.509Z,50
2016-11-17T14:31:41.075Z,55
2016-11-17T14:32:06.663Z,60
2016-11-17T14:32:32.295Z,55
2016-11-17T14:32:57.872Z,60
2016-11-17T14:33:23.449Z,65
2016-11-17T14:33:49.018Z,60
2016-11-17T14:34:14.565Z,60
2016-11-17T14:36:05.714Z,60
2016-11-17T14:36:31.298Z,60
2016-11-17T14:36:56.909Z,60
2016-11-17T14:37:22.471Z,65
2016-11-17T14:37:48.058Z,65
2016-11-17T14:38:13.623Z,65
2016-11-17T14:38:39.197Z,70
2016-11-17T14:39:04.798Z,65
2016-11-17T14:39:30.365Z,65
2016-11-17T14:39:55.958Z,65
2016-11-17T14:40:21.532Z,60
2016-11-17T14:40:47.184Z,45
2016-11-17T14:41:12.772Z,40
2016-11-17T14:41:38.351Z,40
2016-11-17T14:42:03.969Z,50
2016-11-17T14:42:29.563Z,65
2016-11-17T14:42:55.252Z,80
2016-11-17T14:43:20.830Z,80
2016-11-17T14:43:46.396Z,60
2016-11-17T14:44:11.962Z,45
2016-11-17T14:44:37.543Z,50
2016-11-17T14:45:03.240Z,55
2016-11-17T14:45:29.485Z,60
2016-11-17T14:45:55.187Z,45
2016-11-17T14:46:21.555Z,45
2016-11-17T14:46:47.302Z,45
2016-11-17T14:47:12.948Z,35
2016-11-17T14:47:38.521Z,30
2016-11-17T14:48:04.061Z,30
2016-11-17T14:48:29.611Z,30
2016-11-17T14:48:55.183Z,30
2016-11-17T14:49:20.826Z,30
2016-11-17T14:49:46.397Z,30
2016-11-17T14:50:11.962Z,30
2016-11-17T14:50:37.509Z,25
2016-11-17T14:51:03.082Z,25
2016-11-17T14:51:28.645Z,25
2016-11-17T14:51:54.236Z,25
2016-11-17T14:52:19.793Z,25
2016-11-17T14:52:45.362Z,25
2016-11-17T14:53:11.567Z,25
2016-11-17T14:53:37.116Z,25
2016-11-17T14:54:02.673Z,25
2016-11-17T14:54:28.245Z,25
2016-11-17T14:54:53.813Z,25
2016-11-17T14:55:19.435Z,20
2016-11-17T14:55:45.242Z,20
2016-11-17T14:56:10.804Z,20
2016-11-17T14:56:36.445Z,20
2016-11-17T14:57:01.995Z,20
2016-11-17T14:57:27.561Z,20
2016-11-17T14:57:53.141Z,20
2016-11-17T14:58:18.708Z,20
2016-11-17T14:58:44.292Z,20
2016-11-17T14:59:09.854Z,20
2016-11-17T14:59:35.480Z,20
2016-11-17T15:00:01.035Z,20
2016-11-17T15:00:26.629Z,20
2016-11-17T15:00:52.277Z,20
2016-11-17T15:01:17.851Z,20
2016-11-17T15:01:43.419Z,25
2016-11-17T15:02:08.984Z,25
2016-11-17T15:02:34.702Z,25
2016-11-17T15:03:00.278Z,25
2016-11-17T15:03:25.829Z,20
2016-11-17T15:03:51.402Z,15
2016-11-17T15:04:16.984Z,15
2016-11-17T15:04:42.611Z,15
2016-11-17T15:05:08.200Z,15
2016-11-17T15:05:33.854Z,15
2016-11-17T15:06:00.436Z,15
2016-11-17T15:06:26.004Z,15
2016-11-17T15:06:51.599Z,10
2016-11-17T15:07:17.197Z,10
2016-11-17T15:07:42.798Z,10
2016-11-17T15:08:08.374Z,10
2016-11-17T15:08:33.939Z,10
2016-11-17T15:08:59.653Z,10
2016-11-17T15:09:25.214Z,10
2016-11-17T15:09:50.802Z,10
2016-11-17T15:10:16.429Z,10
2016-11-17T15:10:41.959Z,10
2016-11-17T15:11:07.552Z,10
2016-11-17T15:11:33.192Z,10
2016-11-17T15:11:58.840Z,10
2016-11-17T15:12:24.481Z,10
2016-11-17T15:12:50.081Z,10
2016-11-17T15:13:15.691Z,10
2016-11-17T15:13:41.358Z,10
2016-11-17T15:14:06.885Z,10
2016-11-17T15:14:32.485Z,10
2016-11-17T15:14:58.037Z,5
2016-11-17T15:15:23.587Z,5
2016-11-17T15:15:49.283Z,5
2016-11-17T15:16:14.859Z,5
2016-11-17T15:16:40.444Z,5
2016-11-17T15:17:06.026Z,5
2016-11-17T15:17:31.653Z,5
2016-11-17T15:17:57.315Z,5
2016-11-17T15:18:22.881Z,5
2016-11-17T15:18:48.477Z,5
2016-11-17T15:19:14.112Z,5
2016-11-17T15:19:39.742Z,5
2016-11-17T15:20:05.351Z,5
2016-11-17T15:20:30.918Z,5
2016-11-17T15:20:56.470Z,5
2016-11-17T15:21:22.072Z,5
2016-11-17T15:21:47.665Z,5
2016-11-17T15:22:13.261Z,5
2016-11-17T15:22:38.829Z,5
2016-11-17T15:23:04.529Z,5
2016-11-17T15:23:30.098Z,5
2016-11-17T15:23:55.657Z,5
2016-11-17T15:24:21.277Z,5
2016-11-17T15:24:46.904Z,5
2016-11-17T15:25:12.576Z,5
2016-11-17T15:26:41.441Z,0
2016-11-17T15:29:32.792Z,0
2016-11-17T15:30:05.641Z,0
2016-11-17T15:30:31.226Z,0
2016-11-17T15:30:56.789Z,0
2016-11-17T15:31:22.352Z,0
2016-11-17T15:31:47.956Z,0
2016-11-17T15:32:13.536Z,0
2016-11-17T15:32:39.179Z,0
2016-11-17T15:33:04.787Z,0
2016-11-17T15:33:30.355Z,0
2016-11-17T15:33:55.912Z,0
2016-11-17T15:34:21.525Z,0
2016-11-17T15:34:47.016Z,0
2016-11-17T15:35:12.625Z,0
2016-11-17T15:35:38.220Z,0
2016-11-17T15:36:03.784Z,0
2016-11-17T15:36:29.335Z,0
2016-11-17T15:36:54.884Z,0
2016-11-17T15:37:20.448Z,0
2016-11-17T15:37:46.033Z,0
2016-11-17T15:38:11.640Z,0
2016-11-17T15:38:37.213Z,0
2016-11-17T15:39:02.777Z,0
2016-11-17T15:39:28.320Z,0
2016-11-17T15:39:53.912Z,0
2016-11-17T15:40:19.474Z,0
2016-11-17T15:40:45.115Z,0
2016-11-17T15:41:10.762Z,0
2016-11-17T15:41:36.302Z,0
2016-11-17T15:42:01.901Z,0
2016-11-17T15:42:27.464Z,0
2016-11-17T15:42:53.051Z,0
2016-11-17T15:43:18.629Z,0
2016-11-17T15:43:44.254Z,0
2016-11-17T15:44:09.840Z,0
2016-11-17T15:44:35.410Z,0
2016-11-17T15:45:00.974Z,0
2016-11-17T15:45:26.541Z,0
2016-11-17T15:45:52.217Z,0
2016-11-17T15:46:17.931Z,0
2016-11-17T15:46:43.501Z,0
2016-11-17T15:47:09.075Z,0
2016-11-17T15:47:34.670Z,0
2016-11-17T15:48:00.251Z,0
2016-11-17T15:48:25.830Z,0
2016-11-17T15:48:51.371Z,0
2016-11-17T15:49:17.054Z,0
2016-11-17T15:49:42.637Z,0
2016-11-17T15:50:08.235Z,0
2016-11-17T15:50:33.831Z,0
2016-11-17T15:50:59.398Z,0
2016-11-17T15:51:24.944Z,0
2016-11-17T15:51:50.521Z,0
2016-11-17T15:52:16.195Z,0
2016-11-17T15:53:45.037Z,0
2016-11-17T15:54:10.611Z,0
2016-11-17T15:54:36.203Z,0
2016-11-17T15:55:01.736Z,0
2016-11-17T15:55:27.335Z,0
2016-11-17T15:55:52.932Z,0
2016-11-17T15:56:18.518Z,0
2016-11-17T15:56:44.129Z,0
2016-11-17T15:57:09.688Z,0
2016-11-17T15:57:35.297Z,0
2016-11-17T15:58:00.962Z,0
2016-11-17T15:58:26.537Z,0
2016-11-17T15:58:52.154Z,0
2016-11-17T15:59:17.730Z,0
2016-11-17T15:59:43.388Z,0
2016-11-17T16:00:08.951Z,0
2016-11-17T16:00:34.584Z,0
2016-11-17T16:01:00.270Z,0
2016-11-17T16:01:25.898Z,0
2016-11-17T16:01:51.420Z,0
2016-11-17T16:02:16.998Z,0
2016-11-17T16:02:42.559Z,0
2016-11-17T16:03:08.165Z,0
2016-11-17T16:03:33.720Z,0
2016-11-17T16:03:59.316Z,0
2016-11-17T16:04:24.923Z,0
2016-11-17T16:04:50.461Z,0
2016-11-17T16:05:16.167Z,0
2016-11-17T16:05:41.700Z,0
2016-11-17T16:06:07.343Z,0
2016-11-17T16:06:32.908Z,0
2016-11-17T16:06:58.549Z,0
2016-11-17T16:07:24.228Z,0
2016-11-17T16:07:49.765Z,0
2016-11-17T16:08:15.305Z,0
2016-11-17T16:08:40.884Z,0
2016-11-17T16:09:06.520Z,0
2016-11-17T16:09:32.128Z,0
2016-11-17T16:09:57.680Z,0
2016-11-17T16:10:23.336Z,0
2016-11-17T16:10:48.891Z,0
2016-11-17T16:11:14.493Z,0
2016-11-17T16:11:40.143Z,0
2016-11-17T16:12:05.807Z,0
2016-11-17T16:12:31.351Z,0
2016-11-17T16:12:56.926Z,0
2016-11-17T16:13:22.458Z,0
2016-11-17T16:13:48.033Z,0
2016-11-17T16:14:13.643Z,0
2016-11-17T16:14:39.388Z,0
2016-11-17T16:15:04.961Z,0
2016-11-17T16:15:30.567Z,0
2016-11-17T16:15:56.203Z,0
2016-11-17T16:16:21.751Z,0
2016-11-17T16:16:47.371Z,0
2016-11-17T16:17:12.936Z,0
2016-11-17T16:17:38.549Z,0
2016-11-17T16:18:04.140Z,0
2016-11-17T16:18:29.696Z,0
2016-11-17T16:18:55.305Z,0
2016-11-17T16:19:20.831Z,0
2016-11-17T16:19:46.419Z,0
2016-11-17T16:20:11.967Z,0
2016-11-17T16:20:37.546Z,0
2016-11-17T16:21:03.113Z,0
2016-11-17T16:21:28.670Z,0
2016-11-17T16:21:54.248Z,0
2016-11-17T16:22:19.837Z,0
2016-11-17T16:22:45.448Z,0
2016-11-17T16:23:11.123Z,0
2016-11-17T16:23:36.766Z,0
2016-11-17T16:24:02.439Z,0
2016-11-17T16:24:28.008Z,0
2016-11-17T16:24:53.593Z,0
2016-11-17T16:25:19.167Z,0
2016-11-17T16:25:44.808Z,0
2016-11-17T16:26:10.371Z,0
2016-11-17T16:26:35.937Z,0
2016-11-17T16:27:01.519Z,0
2016-11-17T16:27:27.075Z,0
2016-11-17T16:27:52.705Z,0
2016-11-17T16:28:18.312Z,0
2016-11-17T16:28:43.902Z,0
2016-11-17T16:29:09.533Z,0
2016-11-17T16:29:35.118Z,0
2016-11-17T16:30:00.828Z,0
2016-11-17T16:30:26.407Z,0
2016-11-17T16:30:51.949Z,0
2016-11-17T16:31:17.570Z,0
2016-11-17T16:31:43.137Z,0
2016-11-17T16:32:08.779Z,0
2016-11-17T16:32:34.420Z,0
